sensor_id;sensor_type;location;lat;lon;timestamp;P1;durP1;ratioP1;P2;durP2;ratioP2
20695;SDS011;10507;52.754;13.040;2022-07-29T00:00:14;5.95;;;3.65;;
20695;SDS011;10507;52.754;13.040;2022-07-29T00:02:44;9.85;;;3.92;;
20695;SDS011;10507;52.754;13.040;2022-07-29T00:05:12;7.25;;;4.15;;
20695;SDS011;10507;52.754;13.040;2022-07-29T00:07:39;8.23;;;3.80;;
20695;SDS011;10507;52.754;13.040;2022-07-29T00:10:08;11.00;;;4.45;;
20695;SDS011;10507;52.754;13.040;2022-07-29T00:12:35;4.68;;;3.63;;
20695;SDS011;10507;52.754;13.040;2022-07-29T00:15:04;9.40;;;4.25;;
20695;SDS011;10507;52.754;13.040;2022-07-29T00:17:33;10.00;;;4.00;;
20695;SDS011;10507;52.754;13.040;2022-07-29T00:20:02;9.25;;;4.13;;
20695;SDS011;10507;52.754;13.040;2022-07-29T00:22:30;9.15;;;4.28;;
20695;SDS011;10507;52.754;13.040;2022-07-29T00:24:58;8.23;;;3.90;;
20695;SDS011;10507;52.754;13.040;2022-07-29T00:27:26;9.40;;;4.47;;
20695;SDS011;10507;52.754;13.040;2022-07-29T00:29:54;6.30;;;4.05;;
20695;SDS011;10507;52.754;13.040;2022-07-29T00:32:21;7.88;;;4.03;;
20695;SDS011;10507;52.754;13.040;2022-07-29T00:34:49;8.40;;;4.07;;
20695;SDS011;10507;52.754;13.040;2022-07-29T00:37:36;7.28;;;3.80;;
20695;SDS011;10507;52.754;13.040;2022-07-29T00:40:04;9.95;;;5.53;;
20695;SDS011;10507;52.754;13.040;2022-07-29T00:42:40;9.95;;;4.40;;
20695;SDS011;10507;52.754;13.040;2022-07-29T00:45:09;12.45;;;4.07;;
20695;SDS011;10507;52.754;13.040;2022-07-29T00:47:37;7.28;;;3.42;;
20695;SDS011;10507;52.754;13.040;2022-07-29T00:50:05;9.73;;;4.22;;
20695;SDS011;10507;52.754;13.040;2022-07-29T00:52:37;9.20;;;3.50;;
20695;SDS011;10507;52.754;13.040;2022-07-29T00:55:07;6.30;;;4.07;;
20695;SDS011;10507;52.754;13.040;2022-07-29T00:57:37;7.30;;;3.72;;
20695;SDS011;10507;52.754;13.040;2022-07-29T01:00:06;11.88;;;4.03;;
20695;SDS011;10507;52.754;13.040;2022-07-29T01:02:36;8.23;;;4.15;;
20695;SDS011;10507;52.754;13.040;2022-07-29T01:05:04;8.35;;;4.18;;
20695;SDS011;10507;52.754;13.040;2022-07-29T01:07:33;10.52;;;4.13;;
20695;SDS011;10507;52.754;13.040;2022-07-29T01:10:03;7.97;;;4.65;;
20695;SDS011;10507;52.754;13.040;2022-07-29T01:12:33;6.00;;;3.55;;
20695;SDS011;10507;52.754;13.040;2022-07-29T01:15:03;5.70;;;4.03;;
20695;SDS011;10507;52.754;13.040;2022-07-29T01:17:34;7.10;;;4.25;;
20695;SDS011;10507;52.754;13.040;2022-07-29T01:20:20;9.18;;;4.13;;
20695;SDS011;10507;52.754;13.040;2022-07-29T01:23:01;6.25;;;4.03;;
20695;SDS011;10507;52.754;13.040;2022-07-29T01:26:03;6.30;;;3.03;;
20695;SDS011;10507;52.754;13.040;2022-07-29T01:28:49;9.07;;;3.90;;
20695;SDS011;10507;52.754;13.040;2022-07-29T01:31:31;7.30;;;4.00;;
20695;SDS011;10507;52.754;13.040;2022-07-29T01:34:27;8.90;;;4.10;;
20695;SDS011;10507;52.754;13.040;2022-07-29T01:37:01;5.95;;;3.53;;
20695;SDS011;10507;52.754;13.040;2022-07-29T01:39:35;8.43;;;3.40;;
20695;SDS011;10507;52.754;13.040;2022-07-29T01:42:06;8.57;;;3.47;;
20695;SDS011;10507;52.754;13.040;2022-07-29T01:44:45;5.65;;;3.05;;
20695;SDS011;10507;52.754;13.040;2022-07-29T01:47:20;5.88;;;3.15;;
20695;SDS011;10507;52.754;13.040;2022-07-29T01:49:53;4.75;;;3.28;;
20695;SDS011;10507;52.754;13.040;2022-07-29T01:52:26;5.72;;;3.42;;
20695;SDS011;10507;52.754;13.040;2022-07-29T01:55:02;6.57;;;3.30;;
20695;SDS011;10507;52.754;13.040;2022-07-29T01:57:35;7.13;;;3.45;;
20695;SDS011;10507;52.754;13.040;2022-07-29T02:00:07;9.50;;;3.67;;
20695;SDS011;10507;52.754;13.040;2022-07-29T02:02:36;10.05;;;4.18;;
20695;SDS011;10507;52.754;13.040;2022-07-29T02:05:06;8.60;;;3.40;;
20695;SDS011;10507;52.754;13.040;2022-07-29T02:07:36;7.22;;;3.05;;
20695;SDS011;10507;52.754;13.040;2022-07-29T02:10:07;6.82;;;2.97;;
20695;SDS011;10507;52.754;13.040;2022-07-29T02:12:37;7.18;;;3.47;;
20695;SDS011;10507;52.754;13.040;2022-07-29T02:15:09;5.05;;;3.25;;
20695;SDS011;10507;52.754;13.040;2022-07-29T02:17:41;5.93;;;3.20;;
20695;SDS011;10507;52.754;13.040;2022-07-29T02:20:11;4.65;;;2.80;;
20695;SDS011;10507;52.754;13.040;2022-07-29T02:23:03;7.03;;;3.42;;
20695;SDS011;10507;52.754;13.040;2022-07-29T02:25:32;6.88;;;3.38;;
20695;SDS011;10507;52.754;13.040;2022-07-29T02:28:03;7.50;;;3.20;;
20695;SDS011;10507;52.754;13.040;2022-07-29T02:30:34;6.80;;;2.80;;
20695;SDS011;10507;52.754;13.040;2022-07-29T02:33:06;5.50;;;3.10;;
20695;SDS011;10507;52.754;13.040;2022-07-29T02:35:35;4.97;;;3.00;;
20695;SDS011;10507;52.754;13.040;2022-07-29T02:38:04;6.88;;;3.00;;
20695;SDS011;10507;52.754;13.040;2022-07-29T02:40:50;7.57;;;3.00;;
20695;SDS011;10507;52.754;13.040;2022-07-29T02:43:19;7.20;;;3.17;;
20695;SDS011;10507;52.754;13.040;2022-07-29T02:45:51;6.97;;;3.00;;
20695;SDS011;10507;52.754;13.040;2022-07-29T02:48:22;5.50;;;3.00;;
20695;SDS011;10507;52.754;13.040;2022-07-29T02:51:01;4.97;;;2.80;;
20695;SDS011;10507;52.754;13.040;2022-07-29T02:53:37;8.45;;;2.97;;
20695;SDS011;10507;52.754;13.040;2022-07-29T02:56:10;4.72;;;3.00;;
20695;SDS011;10507;52.754;13.040;2022-07-29T02:58:41;7.03;;;3.22;;
20695;SDS011;10507;52.754;13.040;2022-07-29T03:01:17;5.70;;;2.95;;
20695;SDS011;10507;52.754;13.040;2022-07-29T03:03:48;7.07;;;3.20;;
20695;SDS011;10507;52.754;13.040;2022-07-29T03:06:18;5.53;;;3.08;;
20695;SDS011;10507;52.754;13.040;2022-07-29T03:09:04;6.30;;;3.22;;
20695;SDS011;10507;52.754;13.040;2022-07-29T03:11:38;5.03;;;2.78;;
20695;SDS011;10507;52.754;13.040;2022-07-29T03:14:15;8.38;;;3.00;;
20695;SDS011;10507;52.754;13.040;2022-07-29T03:16:48;7.05;;;3.00;;
20695;SDS011;10507;52.754;13.040;2022-07-29T03:19:16;4.78;;;3.00;;
20695;SDS011;10507;52.754;13.040;2022-07-29T03:21:45;10.98;;;3.03;;
20695;SDS011;10507;52.754;13.040;2022-07-29T03:24:23;6.72;;;2.78;;
20695;SDS011;10507;52.754;13.040;2022-07-29T03:26:53;4.78;;;2.58;;
20695;SDS011;10507;52.754;13.040;2022-07-29T03:29:22;8.45;;;3.17;;
20695;SDS011;10507;52.754;13.040;2022-07-29T03:31:59;5.13;;;2.90;;
20695;SDS011;10507;52.754;13.040;2022-07-29T03:34:29;7.93;;;3.17;;
20695;SDS011;10507;52.754;13.040;2022-07-29T03:36:57;4.75;;;2.65;;
20695;SDS011;10507;52.754;13.040;2022-07-29T03:39:25;10.60;;;3.17;;
20695;SDS011;10507;52.754;13.040;2022-07-29T03:41:56;5.72;;;3.10;;
20695;SDS011;10507;52.754;13.040;2022-07-29T03:44:28;4.47;;;2.72;;
20695;SDS011;10507;52.754;13.040;2022-07-29T03:46:58;6.10;;;2.95;;
20695;SDS011;10507;52.754;13.040;2022-07-29T03:49:29;5.25;;;3.10;;
20695;SDS011;10507;52.754;13.040;2022-07-29T03:51:58;6.50;;;2.95;;
20695;SDS011;10507;52.754;13.040;2022-07-29T03:54:26;5.68;;;3.00;;
20695;SDS011;10507;52.754;13.040;2022-07-29T03:56:53;9.00;;;3.08;;
20695;SDS011;10507;52.754;13.040;2022-07-29T03:59:25;4.97;;;2.60;;
20695;SDS011;10507;52.754;13.040;2022-07-29T04:01:54;6.68;;;2.95;;
20695;SDS011;10507;52.754;13.040;2022-07-29T04:04:25;8.00;;;2.70;;
20695;SDS011;10507;52.754;13.040;2022-07-29T04:06:53;3.97;;;2.80;;
20695;SDS011;10507;52.754;13.040;2022-07-29T04:09:21;6.22;;;3.30;;
20695;SDS011;10507;52.754;13.040;2022-07-29T04:11:49;5.57;;;2.65;;
20695;SDS011;10507;52.754;13.040;2022-07-29T04:14:28;7.80;;;2.65;;
20695;SDS011;10507;52.754;13.040;2022-07-29T04:16:56;5.78;;;2.58;;
20695;SDS011;10507;52.754;13.040;2022-07-29T04:19:25;5.05;;;2.63;;
20695;SDS011;10507;52.754;13.040;2022-07-29T04:21:53;3.92;;;2.58;;
20695;SDS011;10507;52.754;13.040;2022-07-29T04:24:21;6.03;;;2.58;;
20695;SDS011;10507;52.754;13.040;2022-07-29T04:26:49;7.30;;;2.50;;
20695;SDS011;10507;52.754;13.040;2022-07-29T04:29:17;5.78;;;3.40;;
20695;SDS011;10507;52.754;13.040;2022-07-29T04:31:46;7.40;;;2.90;;
20695;SDS011;10507;52.754;13.040;2022-07-29T04:34:13;9.05;;;2.80;;
20695;SDS011;10507;52.754;13.040;2022-07-29T04:36:43;5.57;;;2.97;;
20695;SDS011;10507;52.754;13.040;2022-07-29T04:39:11;6.45;;;2.40;;
20695;SDS011;10507;52.754;13.040;2022-07-29T04:41:43;7.43;;;2.95;;
20695;SDS011;10507;52.754;13.040;2022-07-29T04:44:11;6.70;;;2.50;;
20695;SDS011;10507;52.754;13.040;2022-07-29T04:46:39;4.80;;;2.22;;
20695;SDS011;10507;52.754;13.040;2022-07-29T04:49:07;5.15;;;2.58;;
20695;SDS011;10507;52.754;13.040;2022-07-29T04:51:35;5.43;;;2.38;;
20695;SDS011;10507;52.754;13.040;2022-07-29T04:54:04;6.63;;;2.47;;
20695;SDS011;10507;52.754;13.040;2022-07-29T04:56:32;5.18;;;2.05;;
20695;SDS011;10507;52.754;13.040;2022-07-29T04:58:59;8.15;;;2.88;;
20695;SDS011;10507;52.754;13.040;2022-07-29T05:01:27;5.22;;;2.10;;
20695;SDS011;10507;52.754;13.040;2022-07-29T05:03:55;3.08;;;2.00;;
20695;SDS011;10507;52.754;13.040;2022-07-29T05:06:26;6.30;;;2.22;;
20695;SDS011;10507;52.754;13.040;2022-07-29T05:08:53;5.03;;;1.95;;
20695;SDS011;10507;52.754;13.040;2022-07-29T05:11:22;4.75;;;2.25;;
20695;SDS011;10507;52.754;13.040;2022-07-29T05:13:55;4.70;;;1.90;;
20695;SDS011;10507;52.754;13.040;2022-07-29T05:16:23;4.38;;;2.03;;
20695;SDS011;10507;52.754;13.040;2022-07-29T05:18:51;5.28;;;2.17;;
20695;SDS011;10507;52.754;13.040;2022-07-29T05:21:18;5.28;;;2.22;;
20695;SDS011;10507;52.754;13.040;2022-07-29T05:23:46;4.68;;;1.98;;
20695;SDS011;10507;52.754;13.040;2022-07-29T05:26:14;4.90;;;2.03;;
20695;SDS011;10507;52.754;13.040;2022-07-29T05:28:43;5.65;;;1.98;;
20695;SDS011;10507;52.754;13.040;2022-07-29T05:31:10;5.88;;;1.73;;
20695;SDS011;10507;52.754;13.040;2022-07-29T05:33:40;5.95;;;2.25;;
20695;SDS011;10507;52.754;13.040;2022-07-29T05:36:08;4.60;;;1.80;;
20695;SDS011;10507;52.754;13.040;2022-07-29T05:38:36;3.63;;;2.10;;
20695;SDS011;10507;52.754;13.040;2022-07-29T05:41:04;5.75;;;2.15;;
20695;SDS011;10507;52.754;13.040;2022-07-29T05:43:32;5.80;;;2.80;;
20695;SDS011;10507;52.754;13.040;2022-07-29T05:46:01;4.13;;;2.10;;
20695;SDS011;10507;52.754;13.040;2022-07-29T05:48:29;4.53;;;2.17;;
20695;SDS011;10507;52.754;13.040;2022-07-29T05:50:57;5.50;;;2.53;;
20695;SDS011;10507;52.754;13.040;2022-07-29T05:53:25;4.30;;;2.47;;
20695;SDS011;10507;52.754;13.040;2022-07-29T05:55:52;7.40;;;2.40;;
20695;SDS011;10507;52.754;13.040;2022-07-29T05:58:20;8.63;;;2.63;;
20695;SDS011;10507;52.754;13.040;2022-07-29T06:00:48;5.10;;;2.10;;
20695;SDS011;10507;52.754;13.040;2022-07-29T06:03:17;4.13;;;2.38;;
20695;SDS011;10507;52.754;13.040;2022-07-29T06:05:45;5.47;;;2.40;;
20695;SDS011;10507;52.754;13.040;2022-07-29T06:08:13;5.30;;;2.20;;
20695;SDS011;10507;52.754;13.040;2022-07-29T06:10:41;5.32;;;2.20;;
20695;SDS011;10507;52.754;13.040;2022-07-29T06:13:08;2.63;;;1.80;;
20695;SDS011;10507;52.754;13.040;2022-07-29T06:15:36;3.50;;;1.95;;
20695;SDS011;10507;52.754;13.040;2022-07-29T06:18:04;3.58;;;2.05;;
20695;SDS011;10507;52.754;13.040;2022-07-29T06:20:37;7.72;;;2.63;;
20695;SDS011;10507;52.754;13.040;2022-07-29T06:23:05;6.50;;;1.90;;
20695;SDS011;10507;52.754;13.040;2022-07-29T06:25:33;6.80;;;2.63;;
20695;SDS011;10507;52.754;13.040;2022-07-29T06:28:02;5.95;;;2.33;;
20695;SDS011;10507;52.754;13.040;2022-07-29T06:30:30;5.65;;;2.30;;
20695;SDS011;10507;52.754;13.040;2022-07-29T06:32:58;4.95;;;2.00;;
20695;SDS011;10507;52.754;13.040;2022-07-29T06:35:26;5.28;;;2.42;;
20695;SDS011;10507;52.754;13.040;2022-07-29T06:38:08;6.95;;;2.30;;
20695;SDS011;10507;52.754;13.040;2022-07-29T06:40:57;5.28;;;1.98;;
20695;SDS011;10507;52.754;13.040;2022-07-29T06:43:29;3.15;;;1.80;;
20695;SDS011;10507;52.754;13.040;2022-07-29T06:46:00;4.82;;;2.10;;
20695;SDS011;10507;52.754;13.040;2022-07-29T06:48:29;2.53;;;1.75;;
20695;SDS011;10507;52.754;13.040;2022-07-29T06:50:57;6.03;;;1.92;;
20695;SDS011;10507;52.754;13.040;2022-07-29T06:53:26;3.70;;;1.50;;
20695;SDS011;10507;52.754;13.040;2022-07-29T06:55:54;4.10;;;1.85;;
20695;SDS011;10507;52.754;13.040;2022-07-29T06:58:22;4.38;;;1.95;;
20695;SDS011;10507;52.754;13.040;2022-07-29T07:00:49;4.78;;;1.75;;
20695;SDS011;10507;52.754;13.040;2022-07-29T07:03:18;5.57;;;1.70;;
20695;SDS011;10507;52.754;13.040;2022-07-29T07:05:46;5.03;;;1.70;;
20695;SDS011;10507;52.754;13.040;2022-07-29T07:08:14;3.80;;;1.77;;
20695;SDS011;10507;52.754;13.040;2022-07-29T07:10:44;5.15;;;1.95;;
20695;SDS011;10507;52.754;13.040;2022-07-29T07:13:13;2.80;;;1.73;;
20695;SDS011;10507;52.754;13.040;2022-07-29T07:15:43;4.18;;;1.67;;
20695;SDS011;10507;52.754;13.040;2022-07-29T07:18:11;3.58;;;1.50;;
20695;SDS011;10507;52.754;13.040;2022-07-29T07:20:39;3.97;;;1.38;;
20695;SDS011;10507;52.754;13.040;2022-07-29T07:23:06;4.00;;;1.67;;
20695;SDS011;10507;52.754;13.040;2022-07-29T07:25:34;5.32;;;1.73;;
20695;SDS011;10507;52.754;13.040;2022-07-29T07:28:05;3.70;;;1.60;;
20695;SDS011;10507;52.754;13.040;2022-07-29T07:30:33;4.05;;;1.40;;
20695;SDS011;10507;52.754;13.040;2022-07-29T07:33:01;3.85;;;1.80;;
20695;SDS011;10507;52.754;13.040;2022-07-29T07:35:28;5.40;;;1.52;;
20695;SDS011;10507;52.754;13.040;2022-07-29T07:37:56;3.05;;;1.40;;
20695;SDS011;10507;52.754;13.040;2022-07-29T07:40:24;5.60;;;1.67;;
20695;SDS011;10507;52.754;13.040;2022-07-29T07:42:52;3.47;;;1.45;;
20695;SDS011;10507;52.754;13.040;2022-07-29T07:45:22;7.53;;;2.03;;
20695;SDS011;10507;52.754;13.040;2022-07-29T07:47:49;4.47;;;1.65;;
20695;SDS011;10507;52.754;13.040;2022-07-29T07:50:17;4.25;;;1.85;;
20695;SDS011;10507;52.754;13.040;2022-07-29T07:52:46;4.03;;;1.35;;
20695;SDS011;10507;52.754;13.040;2022-07-29T07:55:14;3.88;;;1.40;;
20695;SDS011;10507;52.754;13.040;2022-07-29T07:57:43;3.92;;;1.55;;
20695;SDS011;10507;52.754;13.040;2022-07-29T08:00:11;4.03;;;1.63;;
20695;SDS011;10507;52.754;13.040;2022-07-29T08:02:42;3.30;;;1.40;;
20695;SDS011;10507;52.754;13.040;2022-07-29T08:05:11;3.45;;;1.52;;
20695;SDS011;10507;52.754;13.040;2022-07-29T08:07:44;4.32;;;1.70;;
20695;SDS011;10507;52.754;13.040;2022-07-29T08:10:12;6.80;;;1.30;;
20695;SDS011;10507;52.754;13.040;2022-07-29T08:12:42;3.75;;;1.50;;
20695;SDS011;10507;52.754;13.040;2022-07-29T08:15:09;3.38;;;1.20;;
20695;SDS011;10507;52.754;13.040;2022-07-29T08:17:37;4.50;;;1.60;;
20695;SDS011;10507;52.754;13.040;2022-07-29T08:20:06;4.38;;;1.33;;
20695;SDS011;10507;52.754;13.040;2022-07-29T08:22:34;4.70;;;1.40;;
20695;SDS011;10507;52.754;13.040;2022-07-29T08:25:02;3.10;;;1.58;;
20695;SDS011;10507;52.754;13.040;2022-07-29T08:27:30;3.55;;;1.25;;
20695;SDS011;10507;52.754;13.040;2022-07-29T08:30:09;3.90;;;1.35;;
20695;SDS011;10507;52.754;13.040;2022-07-29T08:32:37;3.45;;;1.50;;
20695;SDS011;10507;52.754;13.040;2022-07-29T08:35:23;5.07;;;1.45;;
20695;SDS011;10507;52.754;13.040;2022-07-29T08:37:51;7.22;;;1.90;;
20695;SDS011;10507;52.754;13.040;2022-07-29T08:40:20;4.93;;;1.85;;
20695;SDS011;10507;52.754;13.040;2022-07-29T08:42:57;2.65;;;1.55;;
20695;SDS011;10507;52.754;13.040;2022-07-29T08:45:26;6.45;;;1.67;;
20695;SDS011;10507;52.754;13.040;2022-07-29T08:47:56;2.40;;;1.35;;
20695;SDS011;10507;52.754;13.040;2022-07-29T08:50:25;5.93;;;1.55;;
20695;SDS011;10507;52.754;13.040;2022-07-29T08:52:53;3.35;;;1.52;;
20695;SDS011;10507;52.754;13.040;2022-07-29T08:55:25;4.22;;;1.10;;
20695;SDS011;10507;52.754;13.040;2022-07-29T08:57:53;2.97;;;1.40;;
20695;SDS011;10507;52.754;13.040;2022-07-29T09:00:22;5.25;;;1.58;;
20695;SDS011;10507;52.754;13.040;2022-07-29T09:02:56;3.42;;;1.15;;
20695;SDS011;10507;52.754;13.040;2022-07-29T09:05:27;2.83;;;1.13;;
20695;SDS011;10507;52.754;13.040;2022-07-29T09:07:55;4.00;;;1.45;;
20695;SDS011;10507;52.754;13.040;2022-07-29T09:10:23;5.97;;;1.35;;
20695;SDS011;10507;52.754;13.040;2022-07-29T09:12:51;4.60;;;1.65;;
20695;SDS011;10507;52.754;13.040;2022-07-29T09:15:19;2.20;;;1.50;;
20695;SDS011;10507;52.754;13.040;2022-07-29T09:17:47;5.20;;;1.20;;
20695;SDS011;10507;52.754;13.040;2022-07-29T09:20:17;4.45;;;1.17;;
20695;SDS011;10507;52.754;13.040;2022-07-29T09:22:46;3.38;;;1.20;;
20695;SDS011;10507;52.754;13.040;2022-07-29T09:25:32;4.70;;;1.38;;
20695;SDS011;10507;52.754;13.040;2022-07-29T09:28:06;4.20;;;1.20;;
20695;SDS011;10507;52.754;13.040;2022-07-29T09:30:35;4.80;;;1.23;;
20695;SDS011;10507;52.754;13.040;2022-07-29T09:33:04;5.18;;;1.40;;
20695;SDS011;10507;52.754;13.040;2022-07-29T09:35:32;5.30;;;1.40;;
20695;SDS011;10507;52.754;13.040;2022-07-29T09:38:10;2.17;;;1.13;;
20695;SDS011;10507;52.754;13.040;2022-07-29T09:40:38;2.72;;;1.23;;
20695;SDS011;10507;52.754;13.040;2022-07-29T09:43:09;5.72;;;1.25;;
20695;SDS011;10507;52.754;13.040;2022-07-29T09:45:38;3.05;;;1.10;;
20695;SDS011;10507;52.754;13.040;2022-07-29T09:48:13;7.40;;;1.48;;
20695;SDS011;10507;52.754;13.040;2022-07-29T09:50:43;5.03;;;1.27;;
20695;SDS011;10507;52.754;13.040;2022-07-29T09:53:23;2.65;;;1.52;;
20695;SDS011;10507;52.754;13.040;2022-07-29T09:55:57;3.45;;;1.08;;
20695;SDS011;10507;52.754;13.040;2022-07-29T09:58:25;4.43;;;1.60;;
20695;SDS011;10507;52.754;13.040;2022-07-29T10:00:53;3.03;;;1.10;;
20695;SDS011;10507;52.754;13.040;2022-07-29T10:03:23;3.53;;;0.95;;
20695;SDS011;10507;52.754;13.040;2022-07-29T10:06:04;2.05;;;1.00;;
20695;SDS011;10507;52.754;13.040;2022-07-29T10:08:34;4.57;;;1.25;;
20695;SDS011;10507;52.754;13.040;2022-07-29T10:11:09;3.05;;;1.27;;
20695;SDS011;10507;52.754;13.040;2022-07-29T10:13:38;5.88;;;1.02;;
20695;SDS011;10507;52.754;13.040;2022-07-29T10:16:06;6.45;;;1.38;;
20695;SDS011;10507;52.754;13.040;2022-07-29T10:18:34;2.97;;;0.80;;
20695;SDS011;10507;52.754;13.040;2022-07-29T10:21:02;4.75;;;0.90;;
20695;SDS011;10507;52.754;13.040;2022-07-29T10:23:30;4.10;;;0.93;;
20695;SDS011;10507;52.754;13.040;2022-07-29T10:26:13;3.63;;;1.20;;
20695;SDS011;10507;52.754;13.040;2022-07-29T10:28:42;3.38;;;1.13;;
20695;SDS011;10507;52.754;13.040;2022-07-29T10:31:12;5.05;;;1.20;;
20695;SDS011;10507;52.754;13.040;2022-07-29T10:33:46;3.17;;;0.93;;
20695;SDS011;10507;52.754;13.040;2022-07-29T10:36:26;2.40;;;0.90;;
20695;SDS011;10507;52.754;13.040;2022-07-29T10:39:11;4.00;;;1.15;;
20695;SDS011;10507;52.754;13.040;2022-07-29T10:44:46;3.65;;;1.25;;
20695;SDS011;10507;52.754;13.040;2022-07-29T10:47:22;4.30;;;0.90;;
20695;SDS011;10507;52.754;13.040;2022-07-29T10:49:55;2.35;;;1.23;;
20695;SDS011;10507;52.754;13.040;2022-07-29T10:55:33;3.20;;;0.90;;
20695;SDS011;10507;52.754;13.040;2022-07-29T10:58:13;2.38;;;1.08;;
20695;SDS011;10507;52.754;13.040;2022-07-29T11:00:43;3.88;;;0.90;;
20695;SDS011;10507;52.754;13.040;2022-07-29T11:06:15;2.42;;;0.95;;
20695;SDS011;10507;52.754;13.040;2022-07-29T11:12:03;3.58;;;1.48;;
20695;SDS011;10507;52.754;13.040;2022-07-29T11:17:26;4.95;;;1.10;;
20695;SDS011;10507;52.754;13.040;2022-07-29T11:20:30;3.65;;;0.88;;
20695;SDS011;10507;52.754;13.040;2022-07-29T11:22:59;3.80;;;1.10;;
20695;SDS011;10507;52.754;13.040;2022-07-29T11:25:27;2.63;;;1.20;;
20695;SDS011;10507;52.754;13.040;2022-07-29T11:28:16;3.95;;;0.93;;
20695;SDS011;10507;52.754;13.040;2022-07-29T11:30:52;2.35;;;1.08;;
20695;SDS011;10507;52.754;13.040;2022-07-29T11:33:26;3.10;;;0.88;;
20695;SDS011;10507;52.754;13.040;2022-07-29T11:36:15;4.72;;;1.48;;
20695;SDS011;10507;52.754;13.040;2022-07-29T11:38:42;2.20;;;1.08;;
20695;SDS011;10507;52.754;13.040;2022-07-29T11:41:20;2.95;;;0.98;;
20695;SDS011;10507;52.754;13.040;2022-07-29T11:43:49;6.28;;;1.42;;
20695;SDS011;10507;52.754;13.040;2022-07-29T11:49:18;2.45;;;0.80;;
20695;SDS011;10507;52.754;13.040;2022-07-29T11:51:58;2.85;;;1.05;;
20695;SDS011;10507;52.754;13.040;2022-07-29T11:54:30;3.53;;;1.20;;
20695;SDS011;10507;52.754;13.040;2022-07-29T11:57:19;2.70;;;1.08;;
20695;SDS011;10507;52.754;13.040;2022-07-29T11:59:47;3.90;;;1.20;;
20695;SDS011;10507;52.754;13.040;2022-07-29T12:02:17;1.38;;;0.85;;
20695;SDS011;10507;52.754;13.040;2022-07-29T12:05:03;3.88;;;1.20;;
20695;SDS011;10507;52.754;13.040;2022-07-29T12:07:51;2.95;;;1.23;;
20695;SDS011;10507;52.754;13.040;2022-07-29T12:10:19;2.63;;;0.98;;
20695;SDS011;10507;52.754;13.040;2022-07-29T12:12:55;2.92;;;1.20;;
20695;SDS011;10507;52.754;13.040;2022-07-29T12:15:23;2.97;;;1.13;;
20695;SDS011;10507;52.754;13.040;2022-07-29T12:18:14;3.30;;;1.08;;
20695;SDS011;10507;52.754;13.040;2022-07-29T12:20:44;3.58;;;1.10;;
20695;SDS011;10507;52.754;13.040;2022-07-29T12:23:13;3.25;;;1.23;;
20695;SDS011;10507;52.754;13.040;2022-07-29T12:25:44;5.93;;;1.30;;
20695;SDS011;10507;52.754;13.040;2022-07-29T12:28:15;4.35;;;1.40;;
20695;SDS011;10507;52.754;13.040;2022-07-29T12:30:52;3.70;;;1.27;;
20695;SDS011;10507;52.754;13.040;2022-07-29T12:33:22;3.20;;;1.33;;
20695;SDS011;10507;52.754;13.040;2022-07-29T12:35:53;4.03;;;1.13;;
20695;SDS011;10507;52.754;13.040;2022-07-29T12:38:32;2.88;;;1.23;;
20695;SDS011;10507;52.754;13.040;2022-07-29T12:41:01;6.20;;;1.35;;
20695;SDS011;10507;52.754;13.040;2022-07-29T12:43:30;2.92;;;1.50;;
20695;SDS011;10507;52.754;13.040;2022-07-29T12:45:58;3.13;;;1.10;;
20695;SDS011;10507;52.754;13.040;2022-07-29T12:48:42;1.95;;;1.20;;
20695;SDS011;10507;52.754;13.040;2022-07-29T12:51:10;2.20;;;1.25;;
20695;SDS011;10507;52.754;13.040;2022-07-29T12:53:40;2.28;;;1.15;;
20695;SDS011;10507;52.754;13.040;2022-07-29T12:56:15;3.38;;;1.10;;
20695;SDS011;10507;52.754;13.040;2022-07-29T12:59:10;3.63;;;1.60;;
20695;SDS011;10507;52.754;13.040;2022-07-29T13:01:39;3.65;;;1.00;;
20695;SDS011;10507;52.754;13.040;2022-07-29T13:04:08;3.42;;;1.23;;
20695;SDS011;10507;52.754;13.040;2022-07-29T13:06:38;3.33;;;1.13;;
20695;SDS011;10507;52.754;13.040;2022-07-29T13:09:12;3.30;;;1.23;;
20695;SDS011;10507;52.754;13.040;2022-07-29T13:11:42;4.07;;;1.15;;
20695;SDS011;10507;52.754;13.040;2022-07-29T13:14:14;2.30;;;1.27;;
20695;SDS011;10507;52.754;13.040;2022-07-29T13:17:01;3.00;;;1.45;;
20695;SDS011;10507;52.754;13.040;2022-07-29T13:19:34;4.90;;;1.40;;
20695;SDS011;10507;52.754;13.040;2022-07-29T13:22:04;3.72;;;1.38;;
20695;SDS011;10507;52.754;13.040;2022-07-29T13:24:32;2.63;;;1.30;;
20695;SDS011;10507;52.754;13.040;2022-07-29T13:27:00;3.67;;;1.73;;
20695;SDS011;10507;52.754;13.040;2022-07-29T13:29:31;6.18;;;1.23;;
20695;SDS011;10507;52.754;13.040;2022-07-29T13:31:59;7.90;;;1.75;;
20695;SDS011;10507;52.754;13.040;2022-07-29T13:34:27;5.40;;;1.60;;
20695;SDS011;10507;52.754;13.040;2022-07-29T13:36:56;3.28;;;1.27;;
20695;SDS011;10507;52.754;13.040;2022-07-29T13:39:24;4.07;;;1.45;;
20695;SDS011;10507;52.754;13.040;2022-07-29T13:41:51;5.00;;;1.50;;
20695;SDS011;10507;52.754;13.040;2022-07-29T13:44:21;3.88;;;1.58;;
20695;SDS011;10507;52.754;13.040;2022-07-29T13:46:49;3.60;;;1.35;;
20695;SDS011;10507;52.754;13.040;2022-07-29T13:49:17;4.72;;;1.80;;
20695;SDS011;10507;52.754;13.040;2022-07-29T13:51:44;3.83;;;1.52;;
20695;SDS011;10507;52.754;13.040;2022-07-29T13:54:14;3.17;;;1.50;;
20695;SDS011;10507;52.754;13.040;2022-07-29T13:56:42;3.55;;;1.63;;
20695;SDS011;10507;52.754;13.040;2022-07-29T13:59:11;2.45;;;1.40;;
20695;SDS011;10507;52.754;13.040;2022-07-29T14:01:39;3.08;;;1.20;;
20695;SDS011;10507;52.754;13.040;2022-07-29T14:04:08;3.95;;;1.83;;
20695;SDS011;10507;52.754;13.040;2022-07-29T14:06:37;2.60;;;1.48;;
20695;SDS011;10507;52.754;13.040;2022-07-29T14:09:05;5.60;;;1.80;;
20695;SDS011;10507;52.754;13.040;2022-07-29T14:11:36;8.10;;;1.58;;
20695;SDS011;10507;52.754;13.040;2022-07-29T14:14:04;4.20;;;1.45;;
20695;SDS011;10507;52.754;13.040;2022-07-29T14:16:32;2.28;;;1.65;;
20695;SDS011;10507;52.754;13.040;2022-07-29T14:19:05;4.07;;;1.52;;
20695;SDS011;10507;52.754;13.040;2022-07-29T14:21:33;3.03;;;1.58;;
20695;SDS011;10507;52.754;13.040;2022-07-29T14:24:02;4.35;;;1.75;;
20695;SDS011;10507;52.754;13.040;2022-07-29T14:26:44;4.93;;;1.77;;
20695;SDS011;10507;52.754;13.040;2022-07-29T14:29:12;4.15;;;1.90;;
20695;SDS011;10507;52.754;13.040;2022-07-29T14:31:40;7.10;;;2.25;;
20695;SDS011;10507;52.754;13.040;2022-07-29T14:34:09;6.13;;;2.05;;
20695;SDS011;10507;52.754;13.040;2022-07-29T14:36:37;3.88;;;1.90;;
20695;SDS011;10507;52.754;13.040;2022-07-29T14:39:04;5.55;;;2.08;;
20695;SDS011;10507;52.754;13.040;2022-07-29T14:41:32;3.63;;;1.58;;
20695;SDS011;10507;52.754;13.040;2022-07-29T14:44:01;4.63;;;1.75;;
20695;SDS011;10507;52.754;13.040;2022-07-29T14:46:29;4.95;;;2.03;;
20695;SDS011;10507;52.754;13.040;2022-07-29T14:48:57;3.88;;;1.65;;
20695;SDS011;10507;52.754;13.040;2022-07-29T14:51:24;3.85;;;1.70;;
20695;SDS011;10507;52.754;13.040;2022-07-29T14:53:57;5.25;;;1.73;;
20695;SDS011;10507;52.754;13.040;2022-07-29T14:56:25;4.93;;;2.20;;
20695;SDS011;10507;52.754;13.040;2022-07-29T14:59:13;2.55;;;1.73;;
20695;SDS011;10507;52.754;13.040;2022-07-29T15:01:41;4.57;;;1.92;;
20695;SDS011;10507;52.754;13.040;2022-07-29T15:04:08;3.03;;;1.60;;
20695;SDS011;10507;52.754;13.040;2022-07-29T15:06:36;3.00;;;1.77;;
20695;SDS011;10507;52.754;13.040;2022-07-29T15:09:04;3.95;;;1.98;;
20695;SDS011;10507;52.754;13.040;2022-07-29T15:11:32;4.70;;;2.17;;
20695;SDS011;10507;52.754;13.040;2022-07-29T15:14:03;4.57;;;1.73;;